sensor_id;sensor_type;location;lat;lon;timestamp;P1;durP1;ratioP1;P2;durP2;ratioP2
67195;SDS011;54122;53.538;49.366;2023-05-15T00:01:41;14.50;;;6.88;;
67195;SDS011;54122;53.538;49.366;2023-05-15T00:04:07;15.40;;;8.23;;
67195;SDS011;54122;53.538;49.366;2023-05-15T00:06:33;20.38;;;9.35;;
67195;SDS011;54122;53.538;49.366;2023-05-15T00:09:00;18.90;;;9.07;;
67195;SDS011;54122;53.538;49.366;2023-05-15T00:11:26;17.02;;;8.48;;
67195;SDS011;54122;53.538;49.366;2023-05-15T00:13:52;20.85;;;10.40;;
67195;SDS011;54122;53.538;49.366;2023-05-15T00:16:18;29.25;;;11.23;;
67195;SDS011;54122;53.538;49.366;2023-05-15T00:18:45;23.63;;;10.95;;
67195;SDS011;54122;53.538;49.366;2023-05-15T00:21:11;30.45;;;12.30;;
67195;SDS011;54122;53.538;49.366;2023-05-15T00:23:37;24.40;;;12.23;;
67195;SDS011;54122;53.538;49.366;2023-05-15T00:26:06;34.95;;;12.52;;
67195;SDS011;54122;53.538;49.366;2023-05-15T00:28:32;21.73;;;11.07;;
67195;SDS011;54122;53.538;49.366;2023-05-15T00:30:58;27.30;;;12.90;;
67195;SDS011;54122;53.538;49.366;2023-05-15T00:33:24;32.85;;;12.82;;
67195;SDS011;54122;53.538;49.366;2023-05-15T00:35:50;21.38;;;11.70;;
67195;SDS011;54122;53.538;49.366;2023-05-15T00:38:16;33.47;;;12.55;;
67195;SDS011;54122;53.538;49.366;2023-05-15T00:40:42;21.02;;;11.30;;
67195;SDS011;54122;53.538;49.366;2023-05-15T00:43:10;24.42;;;11.80;;
67195;SDS011;54122;53.538;49.366;2023-05-15T00:45:38;26.23;;;9.77;;
67195;SDS011;54122;53.538;49.366;2023-05-15T00:48:06;25.77;;;10.02;;
67195;SDS011;54122;53.538;49.366;2023-05-15T00:50:34;23.48;;;9.90;;
67195;SDS011;54122;53.538;49.366;2023-05-15T00:53:00;20.75;;;9.70;;
67195;SDS011;54122;53.538;49.366;2023-05-15T00:55:28;24.35;;;10.25;;
67195;SDS011;54122;53.538;49.366;2023-05-15T00:57:55;20.60;;;9.48;;
67195;SDS011;54122;53.538;49.366;2023-05-15T01:00:22;19.73;;;9.55;;
67195;SDS011;54122;53.538;49.366;2023-05-15T01:02:50;20.70;;;9.68;;
67195;SDS011;54122;53.538;49.366;2023-05-15T01:05:16;15.35;;;8.40;;
67195;SDS011;54122;53.538;49.366;2023-05-15T01:07:46;20.55;;;8.88;;
67195;SDS011;54122;53.538;49.366;2023-05-15T01:10:17;26.80;;;9.25;;
67195;SDS011;54122;53.538;49.366;2023-05-15T01:12:45;18.45;;;8.23;;
67195;SDS011;54122;53.538;49.366;2023-05-15T01:15:15;16.70;;;7.75;;
67195;SDS011;54122;53.538;49.366;2023-05-15T01:17:41;20.48;;;8.77;;
67195;SDS011;54122;53.538;49.366;2023-05-15T01:20:07;21.58;;;9.23;;
67195;SDS011;54122;53.538;49.366;2023-05-15T01:22:50;23.17;;;10.77;;
67195;SDS011;54122;53.538;49.366;2023-05-15T01:27:57;27.45;;;11.35;;
67195;SDS011;54122;53.538;49.366;2023-05-15T01:30:29;17.90;;;10.05;;
67195;SDS011;54122;53.538;49.366;2023-05-15T01:33:11;23.73;;;9.82;;
67195;SDS011;54122;53.538;49.366;2023-05-15T01:36:02;21.65;;;10.43;;
67195;SDS011;54122;53.538;49.366;2023-05-15T01:41:23;23.52;;;10.32;;
67195;SDS011;54122;53.538;49.366;2023-05-15T01:44:04;20.30;;;9.35;;
67195;SDS011;54122;53.538;49.366;2023-05-15T01:46:37;24.02;;;10.02;;
67195;SDS011;54122;53.538;49.366;2023-05-15T01:49:06;24.67;;;10.13;;
67195;SDS011;54122;53.538;49.366;2023-05-15T01:51:35;22.08;;;10.95;;
67195;SDS011;54122;53.538;49.366;2023-05-15T01:54:03;25.65;;;10.63;;
67195;SDS011;54122;53.538;49.366;2023-05-15T01:56:32;20.33;;;10.02;;
67195;SDS011;54122;53.538;49.366;2023-05-15T01:59:00;29.00;;;12.35;;
67195;SDS011;54122;53.538;49.366;2023-05-15T02:01:29;23.70;;;11.20;;
67195;SDS011;54122;53.538;49.366;2023-05-15T02:03:58;20.60;;;11.27;;
67195;SDS011;54122;53.538;49.366;2023-05-15T02:06:24;17.33;;;9.48;;
67195;SDS011;54122;53.538;49.366;2023-05-15T02:08:51;13.48;;;8.40;;
67195;SDS011;54122;53.538;49.366;2023-05-15T02:11:19;13.73;;;7.78;;
67195;SDS011;54122;53.538;49.366;2023-05-15T02:13:45;14.48;;;7.15;;
67195;SDS011;54122;53.538;49.366;2023-05-15T02:16:13;14.32;;;7.82;;
67195;SDS011;54122;53.538;49.366;2023-05-15T02:18:39;12.32;;;6.82;;
67195;SDS011;54122;53.538;49.366;2023-05-15T02:21:05;10.23;;;6.30;;
67195;SDS011;54122;53.538;49.366;2023-05-15T02:23:32;12.68;;;6.05;;
67195;SDS011;54122;53.538;49.366;2023-05-15T02:37:26;9.55;;;4.20;;
67195;SDS011;54122;53.538;49.366;2023-05-15T02:39:55;6.90;;;3.85;;
67195;SDS011;54122;53.538;49.366;2023-05-15T02:42:25;4.95;;;3.63;;
67195;SDS011;54122;53.538;49.366;2023-05-15T02:44:53;6.60;;;3.55;;
67195;SDS011;54122;53.538;49.366;2023-05-15T02:47:20;8.40;;;3.55;;
67195;SDS011;54122;53.538;49.366;2023-05-15T02:49:48;3.58;;;2.63;;
67195;SDS011;54122;53.538;49.366;2023-05-15T02:52:14;3.60;;;2.60;;
67195;SDS011;54122;53.538;49.366;2023-05-15T02:54:40;4.20;;;2.15;;
67195;SDS011;54122;53.538;49.366;2023-05-15T02:57:07;9.45;;;2.13;;
67195;SDS011;54122;53.538;49.366;2023-05-15T02:59:33;5.70;;;2.25;;
67195;SDS011;54122;53.538;49.366;2023-05-15T03:02:00;4.00;;;2.10;;
67195;SDS011;54122;53.538;49.366;2023-05-15T03:04:28;2.92;;;1.67;;
67195;SDS011;54122;53.538;49.366;2023-05-15T03:06:54;4.90;;;1.70;;
67195;SDS011;54122;53.538;49.366;2023-05-15T03:09:20;3.90;;;1.70;;
67195;SDS011;54122;53.538;49.366;2023-05-15T03:11:46;2.47;;;1.50;;
67195;SDS011;54122;53.538;49.366;2023-05-15T03:14:12;2.35;;;1.50;;
67195;SDS011;54122;53.538;49.366;2023-05-15T03:16:39;3.30;;;1.58;;
67195;SDS011;54122;53.538;49.366;2023-05-15T03:19:05;2.25;;;1.30;;
67195;SDS011;54122;53.538;49.366;2023-05-15T03:21:31;3.33;;;1.48;;
67195;SDS011;54122;53.538;49.366;2023-05-15T03:24:00;4.03;;;1.33;;
67195;SDS011;54122;53.538;49.366;2023-05-15T03:26:26;5.85;;;3.08;;
67195;SDS011;54122;53.538;49.366;2023-05-15T03:28:52;3.97;;;1.52;;
67195;SDS011;54122;53.538;49.366;2023-05-15T03:31:19;4.75;;;1.20;;
67195;SDS011;54122;53.538;49.366;2023-05-15T03:33:46;2.05;;;1.20;;
67195;SDS011;54122;53.538;49.366;2023-05-15T03:36:14;2.78;;;1.20;;
67195;SDS011;54122;53.538;49.366;2023-05-15T03:38:40;3.53;;;1.02;;
67195;SDS011;54122;53.538;49.366;2023-05-15T03:41:10;5.18;;;1.30;;
67195;SDS011;54122;53.538;49.366;2023-05-15T03:43:37;1.85;;;1.10;;
67195;SDS011;54122;53.538;49.366;2023-05-15T03:46:04;2.17;;;1.05;;
67195;SDS011;54122;53.538;49.366;2023-05-15T03:48:30;2.30;;;1.00;;
67195;SDS011;54122;53.538;49.366;2023-05-15T03:50:56;6.43;;;1.02;;
67195;SDS011;54122;53.538;49.366;2023-05-15T03:53:22;2.53;;;1.10;;
67195;SDS011;54122;53.538;49.366;2023-05-15T03:55:48;2.55;;;0.80;;
67195;SDS011;54122;53.538;49.366;2023-05-15T03:58:15;2.22;;;0.95;;
67195;SDS011;54122;53.538;49.366;2023-05-15T04:00:41;5.28;;;1.00;;
67195;SDS011;54122;53.538;49.366;2023-05-15T04:03:26;7.10;;;1.00;;
67195;SDS011;54122;53.538;49.366;2023-05-15T04:05:53;1.65;;;0.80;;
67195;SDS011;54122;53.538;49.366;2023-05-15T04:08:20;1.10;;;0.73;;
67195;SDS011;54122;53.538;49.366;2023-05-15T04:11:04;3.50;;;0.80;;
67195;SDS011;54122;53.538;49.366;2023-05-15T04:13:49;1.40;;;0.60;;
67195;SDS011;54122;53.538;49.366;2023-05-15T04:16:33;0.70;;;0.50;;
67195;SDS011;54122;53.538;49.366;2023-05-15T04:24:48;3.20;;;0.80;;
67195;SDS011;54122;53.538;49.366;2023-05-15T04:27:33;8.20;;;0.90;;
67195;SDS011;54122;53.538;49.366;2023-05-15T04:30:01;2.90;;;0.68;;
67195;SDS011;54122;53.538;49.366;2023-05-15T04:32:27;1.92;;;0.55;;
67195;SDS011;54122;53.538;49.366;2023-05-15T04:37:40;1.27;;;0.70;;
67195;SDS011;54122;53.538;49.366;2023-05-15T04:40:07;6.03;;;0.60;;
67195;SDS011;54122;53.538;49.366;2023-05-15T04:42:34;1.77;;;0.63;;
67195;SDS011;54122;53.538;49.366;2023-05-15T04:45:01;1.58;;;0.82;;
67195;SDS011;54122;53.538;49.366;2023-05-15T04:47:28;3.28;;;0.77;;
67195;SDS011;54122;53.538;49.366;2023-05-15T04:49:54;1.33;;;0.63;;
67195;SDS011;54122;53.538;49.366;2023-05-15T04:52:20;1.75;;;0.75;;
67195;SDS011;54122;53.538;49.366;2023-05-15T04:54:46;2.25;;;0.90;;
67195;SDS011;54122;53.538;49.366;2023-05-15T04:57:15;1.92;;;0.85;;
67195;SDS011;54122;53.538;49.366;2023-05-15T04:59:41;2.25;;;0.80;;
67195;SDS011;54122;53.538;49.366;2023-05-15T05:02:08;6.28;;;1.15;;
67195;SDS011;54122;53.538;49.366;2023-05-15T05:04:34;3.40;;;0.75;;
67195;SDS011;54122;53.538;49.366;2023-05-15T05:07:00;4.55;;;0.82;;
67195;SDS011;54122;53.538;49.366;2023-05-15T05:09:45;1.92;;;1.00;;
67195;SDS011;54122;53.538;49.366;2023-05-15T05:12:29;1.60;;;0.80;;
67195;SDS011;54122;53.538;49.366;2023-05-15T05:14:56;0.88;;;0.70;;
67195;SDS011;54122;53.538;49.366;2023-05-15T05:17:22;1.10;;;0.60;;
67195;SDS011;54122;53.538;49.366;2023-05-15T05:19:48;1.60;;;0.60;;
67195;SDS011;54122;53.538;49.366;2023-05-15T05:22:15;1.52;;;0.52;;
67195;SDS011;54122;53.538;49.366;2023-05-15T05:27:28;1.30;;;0.50;;
67195;SDS011;54122;53.538;49.366;2023-05-15T05:29:56;2.92;;;0.50;;
67195;SDS011;54122;53.538;49.366;2023-05-15T05:32:22;0.98;;;0.50;;
67195;SDS011;54122;53.538;49.366;2023-05-15T05:34:49;1.17;;;0.57;;
67195;SDS011;54122;53.538;49.366;2023-05-15T05:37:15;1.17;;;0.60;;
67195;SDS011;54122;53.538;49.366;2023-05-15T05:39:42;0.82;;;0.63;;
67195;SDS011;54122;53.538;49.366;2023-05-15T05:42:09;2.40;;;0.47;;
67195;SDS011;54122;53.538;49.366;2023-05-15T05:44:37;1.77;;;0.70;;
67195;SDS011;54122;53.538;49.366;2023-05-15T05:47:03;1.58;;;0.52;;
67195;SDS011;54122;53.538;49.366;2023-05-15T05:49:30;1.73;;;0.55;;
67195;SDS011;54122;53.538;49.366;2023-05-15T05:52:33;2.67;;;0.50;;
67195;SDS011;54122;53.538;49.366;2023-05-15T05:54:59;2.70;;;0.70;;
67195;SDS011;54122;53.538;49.366;2023-05-15T05:57:45;1.55;;;0.50;;
67195;SDS011;54122;53.538;49.366;2023-05-15T06:00:11;1.50;;;0.50;;
67195;SDS011;54122;53.538;49.366;2023-05-15T06:02:38;1.00;;;0.50;;
67195;SDS011;54122;53.538;49.366;2023-05-15T06:05:05;2.03;;;0.50;;
67195;SDS011;54122;53.538;49.366;2023-05-15T06:10:18;1.50;;;0.60;;
67195;SDS011;54122;53.538;49.366;2023-05-15T06:12:46;4.47;;;2.95;;
67195;SDS011;54122;53.538;49.366;2023-05-15T06:15:32;6.45;;;0.90;;
67195;SDS011;54122;53.538;49.366;2023-05-15T06:17:58;1.38;;;0.40;;
67195;SDS011;54122;53.538;49.366;2023-05-15T06:20:24;1.50;;;0.70;;
67195;SDS011;54122;53.538;49.366;2023-05-15T06:23:09;2.20;;;0.50;;
67195;SDS011;54122;53.538;49.366;2023-05-15T06:25:55;1.95;;;0.50;;
67195;SDS011;54122;53.538;49.366;2023-05-15T06:31:06;8.15;;;1.60;;
67195;SDS011;54122;53.538;49.366;2023-05-15T06:33:56;81.68;;;56.38;;
67195;SDS011;54122;53.538;49.366;2023-05-15T06:36:22;1.58;;;0.50;;
67195;SDS011;54122;53.538;49.366;2023-05-15T06:39:07;1.15;;;0.50;;
67195;SDS011;54122;53.538;49.366;2023-05-15T06:41:38;20.38;;;7.97;;
67195;SDS011;54122;53.538;49.366;2023-05-15T06:44:05;3.50;;;0.90;;
67195;SDS011;54122;53.538;49.366;2023-05-15T06:46:31;4.18;;;0.73;;
67195;SDS011;54122;53.538;49.366;2023-05-15T06:49:16;0.70;;;0.32;;
67195;SDS011;54122;53.538;49.366;2023-05-15T06:51:43;13.32;;;0.77;;
67195;SDS011;54122;53.538;49.366;2023-05-15T06:54:09;0.98;;;0.40;;
67195;SDS011;54122;53.538;49.366;2023-05-15T06:57:13;1.65;;;0.35;;
67195;SDS011;54122;53.538;49.366;2023-05-15T07:02:25;3.42;;;1.70;;
67195;SDS011;54122;53.538;49.366;2023-05-15T07:04:55;0.57;;;0.30;;
67195;SDS011;54122;53.538;49.366;2023-05-15T07:07:22;1.48;;;0.52;;
67195;SDS011;54122;53.538;49.366;2023-05-15T07:09:48;5.93;;;0.32;;
67195;SDS011;54122;53.538;49.366;2023-05-15T07:12:15;1.17;;;0.40;;
67195;SDS011;54122;53.538;49.366;2023-05-15T07:14:41;2.63;;;0.35;;
67195;SDS011;54122;53.538;49.366;2023-05-15T07:17:07;1.05;;;0.60;;
67195;SDS011;54122;53.538;49.366;2023-05-15T07:19:34;4.45;;;0.63;;
67195;SDS011;54122;53.538;49.366;2023-05-15T07:22:19;2.38;;;0.50;;
67195;SDS011;54122;53.538;49.366;2023-05-15T07:24:45;1.67;;;0.50;;
67195;SDS011;54122;53.538;49.366;2023-05-15T07:27:31;1.75;;;0.70;;
67195;SDS011;54122;53.538;49.366;2023-05-15T07:30:16;2.47;;;0.50;;
67195;SDS011;54122;53.538;49.366;2023-05-15T07:32:42;6.22;;;0.75;;
67195;SDS011;54122;53.538;49.366;2023-05-15T07:35:27;3.63;;;0.60;;
67195;SDS011;54122;53.538;49.366;2023-05-15T07:37:54;0.35;;;0.35;;
67195;SDS011;54122;53.538;49.366;2023-05-15T07:40:20;4.43;;;0.60;;
67195;SDS011;54122;53.538;49.366;2023-05-15T07:42:47;2.05;;;0.60;;
67195;SDS011;54122;53.538;49.366;2023-05-15T07:45:32;3.33;;;0.60;;
67195;SDS011;54122;53.538;49.366;2023-05-15T07:50:45;1.45;;;0.60;;
67195;SDS011;54122;53.538;49.366;2023-05-15T07:53:12;0.60;;;0.45;;
67195;SDS011;54122;53.538;49.366;2023-05-15T07:55:42;0.65;;;0.40;;
67195;SDS011;54122;53.538;49.366;2023-05-15T07:58:09;2.33;;;0.52;;
67195;SDS011;54122;53.538;49.366;2023-05-15T08:03:20;5.53;;;0.60;;
67195;SDS011;54122;53.538;49.366;2023-05-15T08:05:46;1.17;;;0.43;;
67195;SDS011;54122;53.538;49.366;2023-05-15T08:08:33;1.67;;;0.82;;
67195;SDS011;54122;53.538;49.366;2023-05-15T08:10:59;2.05;;;0.60;;
67195;SDS011;54122;53.538;49.366;2023-05-15T08:13:25;1.40;;;0.50;;
67195;SDS011;54122;53.538;49.366;2023-05-15T08:18:38;1.10;;;0.30;;
67195;SDS011;54122;53.538;49.366;2023-05-15T08:21:04;0.50;;;0.38;;
67195;SDS011;54122;53.538;49.366;2023-05-15T08:23:31;0.55;;;0.38;;
67195;SDS011;54122;53.538;49.366;2023-05-15T08:25:57;4.10;;;0.50;;
67195;SDS011;54122;53.538;49.366;2023-05-15T08:28:24;1.05;;;0.50;;
67195;SDS011;54122;53.538;49.366;2023-05-15T08:30:50;1.20;;;0.50;;
67195;SDS011;54122;53.538;49.366;2023-05-15T08:36:20;4.63;;;0.38;;
67195;SDS011;54122;53.538;49.366;2023-05-15T08:41:39;3.13;;;0.60;;
67195;SDS011;54122;53.538;49.366;2023-05-15T08:44:17;1.20;;;0.52;;
67195;SDS011;54122;53.538;49.366;2023-05-15T08:46:46;7.60;;;0.60;;
67195;SDS011;54122;53.538;49.366;2023-05-15T08:49:53;6.55;;;0.80;;
67195;SDS011;54122;53.538;49.366;2023-05-15T08:52:45;5.03;;;0.60;;
67195;SDS011;54122;53.538;49.366;2023-05-15T08:55:13;1.27;;;0.68;;
67195;SDS011;54122;53.538;49.366;2023-05-15T08:57:40;6.07;;;0.70;;
67195;SDS011;54122;53.538;49.366;2023-05-15T09:00:07;1.80;;;0.60;;
67195;SDS011;54122;53.538;49.366;2023-05-15T09:02:36;1.35;;;0.60;;
67195;SDS011;54122;53.538;49.366;2023-05-15T09:05:04;0.70;;;0.52;;
67195;SDS011;54122;53.538;49.366;2023-05-15T09:07:31;2.63;;;0.65;;
67195;SDS011;54122;53.538;49.366;2023-05-15T09:09:58;2.85;;;0.60;;
67195;SDS011;54122;53.538;49.366;2023-05-15T09:12:45;2.70;;;0.70;;
67195;SDS011;54122;53.538;49.366;2023-05-15T09:15:31;1.10;;;0.57;;
67195;SDS011;54122;53.538;49.366;2023-05-15T09:17:57;8.52;;;0.70;;
67195;SDS011;54122;53.538;49.366;2023-05-15T09:20:31;1.75;;;0.70;;
67195;SDS011;54122;53.538;49.366;2023-05-15T09:23:04;1.52;;;0.70;;
67195;SDS011;54122;53.538;49.366;2023-05-15T09:25:51;1.67;;;0.88;;
67195;SDS011;54122;53.538;49.366;2023-05-15T09:28:29;2.67;;;0.70;;
67195;SDS011;54122;53.538;49.366;2023-05-15T09:31:03;2.08;;;0.80;;
67195;SDS011;54122;53.538;49.366;2023-05-15T09:36:29;2.17;;;0.90;;
67195;SDS011;54122;53.538;49.366;2023-05-15T09:39:00;1.45;;;0.60;;
67195;SDS011;54122;53.538;49.366;2023-05-15T09:41:33;9.10;;;0.80;;
67195;SDS011;54122;53.538;49.366;2023-05-15T09:44:05;26.10;;;1.20;;
67195;SDS011;54122;53.538;49.366;2023-05-15T09:47:06;1.67;;;0.80;;
67195;SDS011;54122;53.538;49.366;2023-05-15T09:49:38;1.13;;;0.90;;
67195;SDS011;54122;53.538;49.366;2023-05-15T09:52:14;2.10;;;1.13;;
67195;SDS011;54122;53.538;49.366;2023-05-15T09:54:46;2.47;;;0.90;;
67195;SDS011;54122;53.538;49.366;2023-05-15T09:57:20;3.15;;;0.98;;
67195;SDS011;54122;53.538;49.366;2023-05-15T09:59:53;1.30;;;0.88;;
67195;SDS011;54122;53.538;49.366;2023-05-15T10:02:42;1.10;;;0.77;;
67195;SDS011;54122;53.538;49.366;2023-05-15T10:05:34;2.67;;;1.10;;
67195;SDS011;54122;53.538;49.366;2023-05-15T10:08:25;12.85;;;1.42;;
67195;SDS011;54122;53.538;49.366;2023-05-15T10:10:58;2.03;;;1.05;;
67195;SDS011;54122;53.538;49.366;2023-05-15T10:13:30;1.30;;;0.98;;
67195;SDS011;54122;53.538;49.366;2023-05-15T10:16:22;3.22;;;0.80;;
67195;SDS011;54122;53.538;49.366;2023-05-15T10:18:55;3.83;;;1.58;;
67195;SDS011;54122;53.538;49.366;2023-05-15T10:24:36;2.13;;;1.00;;
67195;SDS011;54122;53.538;49.366;2023-05-15T10:27:10;2.95;;;1.00;;
67195;SDS011;54122;53.538;49.366;2023-05-15T10:29:42;5.53;;;1.10;;
67195;SDS011;54122;53.538;49.366;2023-05-15T10:32:14;2.00;;;0.88;;
67195;SDS011;54122;53.538;49.366;2023-05-15T10:34:47;1.83;;;1.08;;
67195;SDS011;54122;53.538;49.366;2023-05-15T10:37:20;2.38;;;1.05;;
67195;SDS011;54122;53.538;49.366;2023-05-15T10:40:12;2.88;;;0.85;;
67195;SDS011;54122;53.538;49.366;2023-05-15T10:43:22;3.42;;;0.80;;
67195;SDS011;54122;53.538;49.366;2023-05-15T10:48:26;3.33;;;0.95;;
67195;SDS011;54122;53.538;49.366;2023-05-15T10:51:17;2.10;;;1.30;;
67195;SDS011;54122;53.538;49.366;2023-05-15T10:53:56;2.05;;;1.05;;
67195;SDS011;54122;53.538;49.366;2023-05-15T10:56:31;2.25;;;1.35;;
67195;SDS011;54122;53.538;49.366;2023-05-15T10:59:04;3.17;;;1.35;;
67195;SDS011;54122;53.538;49.366;2023-05-15T11:01:38;15.55;;;1.40;;
67195;SDS011;54122;53.538;49.366;2023-05-15T11:04:17;2.17;;;1.00;;
67195;SDS011;54122;53.538;49.366;2023-05-15T11:07:11;1.77;;;1.15;;
67195;SDS011;54122;53.538;49.366;2023-05-15T11:09:46;2.55;;;0.98;;
67195;SDS011;54122;53.538;49.366;2023-05-15T11:12:18;1.10;;;0.80;;
67195;SDS011;54122;53.538;49.366;2023-05-15T11:17:27;2.95;;;1.00;;
67195;SDS011;54122;53.538;49.366;2023-05-15T11:20:02;6.63;;;1.10;;
67195;SDS011;54122;53.538;49.366;2023-05-15T11:22:34;2.13;;;1.27;;
67195;SDS011;54122;53.538;49.366;2023-05-15T11:25:06;1.67;;;1.02;;
67195;SDS011;54122;53.538;49.366;2023-05-15T11:27:43;9.68;;;1.35;;
67195;SDS011;54122;53.538;49.366;2023-05-15T11:30:20;1.63;;;1.23;;
67195;SDS011;54122;53.538;49.366;2023-05-15T11:32:59;1.08;;;0.88;;
67195;SDS011;54122;53.538;49.366;2023-05-15T11:35:56;2.45;;;1.00;;
67195;SDS011;54122;53.538;49.366;2023-05-15T11:38:28;24.55;;;1.75;;
67195;SDS011;54122;53.538;49.366;2023-05-15T11:41:15;5.57;;;1.20;;
67195;SDS011;54122;53.538;49.366;2023-05-15T11:43:48;1.75;;;0.95;;
67195;SDS011;54122;53.538;49.366;2023-05-15T11:46:20;6.97;;;1.15;;
67195;SDS011;54122;53.538;49.366;2023-05-15T11:51:24;3.40;;;1.00;;
67195;SDS011;54122;53.538;49.366;2023-05-15T11:54:15;3.58;;;1.00;;
67195;SDS011;54122;53.538;49.366;2023-05-15T11:56:47;1.88;;;1.13;;
67195;SDS011;54122;53.538;49.366;2023-05-15T11:59:19;1.42;;;0.82;;
67195;SDS011;54122;53.538;49.366;2023-05-15T12:01:51;2.08;;;1.15;;
67195;SDS011;54122;53.538;49.366;2023-05-15T12:04:41;1.30;;;0.90;;
67195;SDS011;54122;53.538;49.366;2023-05-15T12:07:12;2.40;;;0.70;;
67195;SDS011;54122;53.538;49.366;2023-05-15T12:09:48;6.28;;;1.00;;
67195;SDS011;54122;53.538;49.366;2023-05-15T12:12:22;1.63;;;0.90;;
67195;SDS011;54122;53.538;49.366;2023-05-15T12:14:56;12.55;;;1.15;;
67195;SDS011;54122;53.538;49.366;2023-05-15T12:17:29;1.75;;;0.77;;
67195;SDS011;54122;53.538;49.366;2023-05-15T12:20:20;5.03;;;1.08;;
67195;SDS011;54122;53.538;49.366;2023-05-15T12:22:51;4.70;;;0.73;;
67195;SDS011;54122;53.538;49.366;2023-05-15T12:25:22;7.03;;;1.00;;
67195;SDS011;54122;53.538;49.366;2023-05-15T12:30:26;2.07;;;0.70;;
67195;SDS011;54122;53.538;49.366;2023-05-15T12:33:03;7.63;;;0.63;;
67195;SDS011;54122;53.538;49.366;2023-05-15T12:35:43;9.68;;;1.00;;
67195;SDS011;54122;53.538;49.366;2023-05-15T12:38:22;1.30;;;0.80;;
67195;SDS011;54122;53.538;49.366;2023-05-15T12:40:54;1.25;;;0.90;;
67195;SDS011;54122;53.538;49.366;2023-05-15T12:43:44;0.85;;;0.60;;
67195;SDS011;54122;53.538;49.366;2023-05-15T12:46:16;2.08;;;0.60;;
67195;SDS011;54122;53.538;49.366;2023-05-15T12:48:52;3.83;;;1.02;;
67195;SDS011;54122;53.538;49.366;2023-05-15T12:51:42;1.25;;;0.70;;
67195;SDS011;54122;53.538;49.366;2023-05-15T12:54:18;4.80;;;0.50;;
67195;SDS011;54122;53.538;49.366;2023-05-15T12:59:40;1.83;;;0.70;;
67195;SDS011;54122;53.538;49.366;2023-05-15T13:02:12;3.78;;;0.60;;
67195;SDS011;54122;53.538;49.366;2023-05-15T13:05:05;1.10;;;0.80;;
67195;SDS011;54122;53.538;49.366;2023-05-15T13:07:57;0.65;;;0.57;;
67195;SDS011;54122;53.538;49.366;2023-05-15T13:10:33;2.90;;;0.70;;
67195;SDS011;54122;53.538;49.366;2023-05-15T13:13:06;2.40;;;0.80;;
67195;SDS011;54122;53.538;49.366;2023-05-15T13:15:38;1.35;;;0.80;;
67195;SDS011;54122;53.538;49.366;2023-05-15T13:18:13;2.67;;;1.00;;
67195;SDS011;54122;53.538;49.366;2023-05-15T13:23:36;17.77;;;1.13;;
67195;SDS011;54122;53.538;49.366;2023-05-15T13:26:09;1.10;;;0.60;;
67195;SDS011;54122;53.538;49.366;2023-05-15T13:28:41;1.95;;;0.90;;
67195;SDS011;54122;53.538;49.366;2023-05-15T13:34:21;0.95;;;0.70;;
67195;SDS011;54122;53.538;49.366;2023-05-15T13:36:52;2.35;;;0.70;;
67195;SDS011;54122;53.538;49.366;2023-05-15T13:39:23;2.88;;;1.05;;
67195;SDS011;54122;53.538;49.366;2023-05-15T13:42:13;1.35;;;0.90;;
67195;SDS011;54122;53.538;49.366;2023-05-15T13:44:45;3.75;;;0.95;;
67195;SDS011;54122;53.538;49.366;2023-05-15T13:47:16;15.75;;;1.10;;
67195;SDS011;54122;53.538;49.366;2023-05-15T13:49:48;2.40;;;0.90;;
67195;SDS011;54122;53.538;49.366;2023-05-15T13:52:19;0.68;;;0.50;;
67195;SDS011;54122;53.538;49.366;2023-05-15T13:54:51;0.90;;;0.75;;
67195;SDS011;54122;53.538;49.366;2023-05-15T13:57:41;5.18;;;0.80;;
67195;SDS011;54122;53.538;49.366;2023-05-15T14:00:31;1.17;;;0.75;;
67195;SDS011;54122;53.538;49.366;2023-05-15T14:03:03;2.05;;;1.00;;
67195;SDS011;54122;53.538;49.366;2023-05-15T14:05:34;1.65;;;0.90;;
67195;SDS011;54122;53.538;49.366;2023-05-15T14:08:06;1.70;;;0.80;;
67195;SDS011;54122;53.538;49.366;2023-05-15T14:10:37;9.43;;;0.90;;
67195;SDS011;54122;53.538;49.366;2023-05-15T14:16:17;5.35;;;0.90;;
67195;SDS011;54122;53.538;49.366;2023-05-15T14:19:07;0.80;;;0.75;;
67195;SDS011;54122;53.538;49.366;2023-05-15T14:21:38;3.28;;;1.08;;
67195;SDS011;54122;53.538;49.366;2023-05-15T14:27:38;2.25;;;0.82;;
67195;SDS011;54122;53.538;49.366;2023-05-15T14:32:42;1.08;;;0.70;;
67195;SDS011;54122;53.538;49.366;2023-05-15T14:35:13;9.15;;;1.00;;
67195;SDS011;54122;53.538;49.366;2023-05-15T14:37:45;2.30;;;0.88;;
67195;SDS011;54122;53.538;49.366;2023-05-15T14:40:34;13.65;;;1.08;;
67195;SDS011;54122;53.538;49.366;2023-05-15T14:43:06;1.88;;;0.80;;
67195;SDS011;54122;53.538;49.366;2023-05-15T14:45:37;2.05;;;0.70;;
67195;SDS011;54122;53.538;49.366;2023-05-15T14:48:08;3.17;;;1.00;;
67195;SDS011;54122;53.538;49.366;2023-05-15T14:50:41;7.05;;;1.25;;
67195;SDS011;54122;53.538;49.366;2023-05-15T14:53:12;2.28;;;1.00;;
67195;SDS011;54122;53.538;49.366;2023-05-15T14:55:44;3.13;;;1.20;;
67195;SDS011;54122;53.538;49.366;2023-05-15T14:58:15;1.88;;;0.90;;
67195;SDS011;54122;53.538;49.366;2023-05-15T15:01:05;1.48;;;0.90;;
67195;SDS011;54122;53.538;49.366;2023-05-15T15:03:36;2.38;;;1.30;;
67195;SDS011;54122;53.538;49.366;2023-05-15T15:06:26;4.38;;;1.10;;
67195;SDS011;54122;53.538;49.366;2023-05-15T15:08:58;3.20;;;0.80;;
67195;SDS011;54122;53.538;49.366;2023-05-15T15:11:29;2.22;;;1.10;;
67195;SDS011;54122;53.538;49.366;2023-05-15T15:14:01;7.38;;;1.00;;
67195;SDS011;54122;53.538;49.366;2023-05-15T15:16:33;4.65;;;1.08;;
67195;SDS011;54122;53.538;49.366;2023-05-15T15:19:05;2.35;;;1.13;;
67195;SDS011;54122;53.538;49.366;2023-05-15T15:21:36;2.33;;;1.00;;
67195;SDS011;54122;53.538;49.366;2023-05-15T15:24:07;10.80;;;1.25;;
67195;SDS011;54122;53.538;49.366;2023-05-15T15:29:48;5.68;;;1.05;;
67195;SDS011;54122;53.538;49.366;2023-05-15T15:32:15;10.30;;;1.00;;
67195;SDS011;54122;53.538;49.366;2023-05-15T15:34:41;2.10;;;1.30;;
67195;SDS011;54122;53.538;49.366;2023-05-15T15:37:07;8.05;;;1.02;;
67195;SDS011;54122;53.538;49.366;2023-05-15T15:39:35;4.20;;;1.20;;
67195;SDS011;54122;53.538;49.366;2023-05-15T15:42:01;2.65;;;0.88;;
67195;SDS011;54122;53.538;49.366;2023-05-15T15:44:28;3.75;;;0.77;;
67195;SDS011;54122;53.538;49.366;2023-05-15T15:46:54;3.03;;;1.05;;
67195;SDS011;54122;53.538;49.366;2023-05-15T15:49:20;4.47;;;1.13;;
67195;SDS011;54122;53.538;49.366;2023-05-15T15:51:46;1.88;;;1.08;;
67195;SDS011;54122;53.538;49.366;2023-05-15T15:54:12;6.55;;;1.67;;
67195;SDS011;54122;53.538;49.366;2023-05-15T15:59:24;4.20;;;1.20;;
67195;SDS011;54122;53.538;49.366;2023-05-15T16:01:50;4.80;;;1.17;;
67195;SDS011;54122;53.538;49.366;2023-05-15T16:04:16;7.47;;;1.15;;
67195;SDS011;54122;53.538;49.366;2023-05-15T16:12:33;4.25;;;1.30;;
67195;SDS011;54122;53.538;49.366;2023-05-15T16:15:18;6.53;;;1.20;;
67195;SDS011;54122;53.538;49.366;2023-05-15T16:18:04;1.73;;;1.23;;
67195;SDS011;54122;53.538;49.366;2023-05-15T16:20:31;6.63;;;1.67;;
67195;SDS011;54122;53.538;49.366;2023-05-15T16:23:16;2.63;;;1.20;;
67195;SDS011;54122;53.538;49.366;2023-05-15T16:25:47;4.45;;;1.40;;
67195;SDS011;54122;53.538;49.366;2023-05-15T16:28:13;6.05;;;1.10;;
67195;SDS011;54122;53.538;49.366;2023-05-15T16:30:58;3.60;;;1.58;;
67195;SDS011;54122;53.538;49.366;2023-05-15T16:34:02;21.50;;;3.00;;
67195;SDS011;54122;53.538;49.366;2023-05-15T16:36:47;4.80;;;1.25;;
67195;SDS011;54122;53.538;49.366;2023-05-15T16:39:13;10.90;;;1.77;;